createdAt,value
2024-01-14T00:00:12.060Z,6.09
2024-01-14T00:02:39.927Z,6.57
2024-01-14T00:05:07.657Z,5.71
2024-01-14T00:07:34.804Z,5.98
2024-01-14T00:10:01.202Z,6.10
2024-01-14T00:12:27.703Z,6.03
2024-01-14T00:14:54.250Z,5.97
2024-01-14T00:17:20.629Z,6.09
2024-01-14T00:19:48.412Z,6.37
2024-01-14T00:22:17.824Z,6.05
2024-01-14T00:24:45.521Z,6.60
2024-01-14T00:27:12.152Z,6.07
2024-01-14T00:29:38.951Z,6.12
2024-01-14T00:32:05.724Z,5.44
2024-01-14T00:34:35.675Z,5.79
2024-01-14T00:37:02.472Z,6.17
2024-01-14T00:39:28.928Z,6.23
2024-01-14T00:41:55.369Z,6.00
2024-01-14T00:44:24.084Z,6.06
2024-01-14T00:46:53.544Z,6.57
2024-01-14T00:49:19.994Z,6.56
2024-01-14T00:51:47.248Z,5.13
2024-01-14T00:54:14.022Z,5.81
2024-01-14T00:56:40.391Z,5.79
2024-01-14T00:59:06.730Z,5.88
2024-01-14T01:01:33.097Z,6.04
2024-01-14T01:03:59.582Z,6.01
2024-01-14T01:06:26.030Z,5.50
2024-01-14T01:08:54.525Z,5.64
2024-01-14T01:11:20.894Z,5.34
2024-01-14T01:13:47.340Z,6.24
2024-01-14T01:16:15.759Z,6.04
2024-01-14T01:18:42.354Z,6.46
2024-01-14T01:21:08.831Z,5.70
2024-01-14T01:23:35.622Z,5.97
2024-01-14T01:26:02.903Z,5.85
2024-01-14T01:28:29.323Z,6.01
2024-01-14T01:30:55.778Z,5.88
2024-01-14T01:33:22.834Z,5.86
2024-01-14T01:35:49.367Z,6.10
2024-01-14T01:38:15.760Z,5.69
2024-01-14T01:40:42.205Z,5.84
2024-01-14T01:43:08.582Z,5.62
2024-01-14T01:45:34.947Z,5.58
2024-01-14T01:48:01.975Z,5.70
2024-01-14T01:50:29.089Z,5.61
2024-01-14T01:52:56.815Z,6.02
2024-01-14T01:55:23.229Z,5.97
2024-01-14T01:57:49.665Z,5.54
2024-01-14T02:00:16.198Z,5.53
2024-01-14T02:02:43.961Z,6.16
2024-01-14T02:05:11.227Z,5.30
2024-01-14T02:07:39.237Z,5.89
2024-01-14T02:10:06.494Z,5.33
2024-01-14T02:12:32.939Z,5.74
2024-01-14T02:14:59.350Z,5.72
2024-01-14T02:17:25.811Z,5.52
2024-01-14T02:19:52.245Z,5.55
2024-01-14T02:22:29.727Z,5.87
2024-01-14T02:24:56.506Z,5.55
2024-01-14T02:27:23.347Z,5.49
2024-01-14T02:29:49.915Z,5.48
2024-01-14T02:32:16.289Z,5.88
2024-01-14T02:34:42.754Z,5.29
2024-01-14T02:37:09.196Z,5.66
2024-01-14T02:39:35.650Z,5.75
2024-01-14T02:42:02.183Z,5.52
2024-01-14T02:44:28.611Z,5.90
2024-01-14T02:46:54.955Z,5.30
2024-01-14T02:49:21.444Z,6.15
2024-01-14T02:51:47.949Z,6.10
2024-01-14T02:54:14.343Z,5.81
2024-01-14T02:56:40.721Z,5.73
2024-01-14T02:59:07.091Z,5.92
2024-01-14T03:01:33.447Z,5.42
2024-01-14T03:03:59.993Z,5.37
2024-01-14T03:06:26.567Z,5.71
2024-01-14T03:08:53.355Z,5.55
2024-01-14T03:11:20.542Z,5.83
2024-01-14T03:13:46.890Z,5.77
2024-01-14T03:16:13.345Z,6.09
2024-01-14T03:18:39.849Z,6.08
2024-01-14T03:21:06.446Z,6.25
2024-01-14T03:23:32.876Z,5.77
2024-01-14T03:26:00.025Z,5.80
2024-01-14T03:28:26.369Z,6.09
2024-01-14T03:30:52.982Z,5.59
2024-01-14T03:33:19.508Z,5.53
2024-01-14T03:35:45.993Z,5.36
2024-01-14T03:38:12.342Z,5.24
2024-01-14T03:40:38.680Z,5.59
2024-01-14T03:43:05.148Z,6.00
2024-01-14T03:45:31.724Z,5.61
2024-01-14T03:47:58.366Z,5.15
2024-01-14T03:50:25.035Z,5.51
2024-01-14T03:52:51.497Z,5.56
2024-01-14T03:55:17.841Z,5.86
2024-01-14T03:57:44.225Z,6.00
2024-01-14T04:00:11.705Z,5.73
2024-01-14T04:02:38.114Z,5.42
2024-01-14T04:05:04.804Z,5.21
2024-01-14T04:07:31.144Z,5.67
2024-01-14T04:09:57.518Z,5.45
2024-01-14T04:12:24.034Z,5.69
2024-01-14T04:14:50.435Z,5.52
2024-01-14T04:17:16.794Z,4.90
2024-01-14T04:19:43.237Z,5.37
2024-01-14T04:22:09.591Z,5.79
2024-01-14T04:24:35.967Z,5.96
2024-01-14T04:27:02.380Z,5.58
2024-01-14T04:29:28.873Z,5.63
2024-01-14T04:31:55.233Z,5.70
2024-01-14T04:34:21.681Z,5.30
2024-01-14T04:36:48.114Z,5.59
2024-01-14T04:39:14.505Z,5.50
2024-01-14T04:41:42.160Z,5.35
2024-01-14T04:44:08.513Z,5.69
2024-01-14T04:46:34.852Z,5.34
2024-01-14T04:49:01.429Z,5.71
2024-01-14T04:51:28.010Z,5.92
2024-01-14T04:53:54.455Z,5.62
2024-01-14T04:56:20.952Z,6.08
2024-01-14T04:58:47.338Z,5.87
2024-01-14T05:01:13.728Z,6.24
2024-01-14T05:03:40.215Z,5.79
2024-01-14T05:06:06.821Z,5.62
2024-01-14T05:08:33.356Z,5.92
2024-01-14T05:10:59.724Z,5.71
2024-01-14T05:13:26.129Z,6.16
2024-01-14T05:15:52.465Z,5.74
2024-01-14T05:18:19.022Z,6.32
2024-01-14T05:20:45.550Z,6.07
2024-01-14T05:23:12.017Z,5.43
2024-01-14T05:25:38.383Z,6.17
2024-01-14T05:28:04.959Z,6.14
2024-01-14T05:30:31.407Z,6.08
2024-01-14T05:32:57.906Z,5.95
2024-01-14T05:35:24.301Z,6.24
2024-01-14T05:37:50.672Z,6.08
2024-01-14T05:40:17.123Z,5.88
2024-01-14T05:42:43.926Z,5.89
2024-01-14T05:45:11.812Z,6.47
2024-01-14T05:47:38.359Z,6.37
2024-01-14T05:50:05.394Z,6.64
2024-01-14T05:52:31.873Z,6.42
2024-01-14T05:54:58.271Z,6.24
2024-01-14T05:57:24.766Z,6.42
2024-01-14T05:59:51.242Z,6.40
2024-01-14T06:02:18.431Z,5.98
2024-01-14T06:04:44.850Z,6.28
2024-01-14T06:07:11.734Z,6.53
2024-01-14T06:09:38.271Z,6.50
2024-01-14T06:12:04.962Z,5.95
2024-01-14T06:14:31.359Z,5.80
2024-01-14T06:16:57.910Z,6.10
2024-01-14T06:19:24.388Z,6.11
2024-01-14T06:21:50.776Z,6.32
2024-01-14T06:24:17.297Z,6.32
2024-01-14T06:26:43.740Z,6.18
2024-01-14T06:29:10.133Z,7.10
2024-01-14T06:31:36.791Z,6.05
2024-01-14T06:34:03.696Z,6.25
2024-01-14T06:36:30.220Z,6.33
2024-01-14T06:38:56.641Z,5.97
2024-01-14T06:41:26.566Z,6.66
2024-01-14T06:43:52.968Z,6.64
2024-01-14T06:46:19.393Z,6.87
2024-01-14T06:48:45.900Z,7.12
2024-01-14T06:51:12.785Z,6.36
2024-01-14T06:53:39.171Z,6.53
2024-01-14T06:56:05.960Z,6.15
2024-01-14T06:58:32.396Z,6.58
2024-01-14T07:00:58.821Z,6.53
2024-01-14T07:03:25.443Z,6.40
2024-01-14T07:05:52.212Z,6.60
2024-01-14T07:08:19.113Z,5.93
2024-01-14T07:10:45.512Z,6.38
2024-01-14T07:13:12.029Z,6.13
2024-01-14T07:15:39.625Z,6.61
2024-01-14T07:18:06.498Z,6.21
2024-01-14T07:20:33.057Z,6.61
2024-01-14T07:23:39.911Z,6.39
2024-01-14T07:25:45.793Z,6.74
2024-01-14T07:28:12.178Z,6.45
2024-01-14T07:30:38.709Z,6.27
2024-01-14T07:33:05.252Z,6.38
2024-01-14T07:35:31.668Z,6.25
2024-01-14T07:37:58.139Z,6.21
2024-01-14T07:40:24.506Z,6.09
2024-01-14T07:42:50.853Z,6.31
2024-01-14T07:45:17.248Z,6.38
2024-01-14T07:47:43.654Z,6.58
2024-01-14T07:50:10.394Z,6.96
2024-01-14T07:52:36.871Z,6.28
2024-01-14T07:55:03.217Z,6.23
2024-01-14T07:57:29.681Z,6.96
2024-01-14T07:59:56.052Z,6.27
2024-01-14T08:02:22.456Z,7.43
2024-01-14T08:04:49.089Z,6.93
2024-01-14T08:07:16.086Z,6.51
2024-01-14T08:09:43.247Z,6.67
2024-01-14T08:12:09.697Z,6.71
2024-01-14T08:14:36.109Z,7.29
2024-01-14T08:17:02.461Z,7.51
2024-01-14T08:19:29.239Z,7.25
2024-01-14T08:21:56.000Z,7.00
2024-01-14T08:24:22.421Z,6.91
2024-01-14T08:26:51.509Z,8.12
2024-01-14T08:29:24.893Z,7.92
2024-01-14T08:31:53.257Z,7.98
2024-01-14T08:34:19.744Z,7.69
2024-01-14T08:36:46.240Z,7.16
2024-01-14T08:39:13.171Z,7.21
2024-01-14T08:41:39.893Z,6.87
2024-01-14T08:44:08.009Z,7.43
2024-01-14T08:46:37.889Z,6.88
2024-01-14T08:49:04.493Z,6.97
2024-01-14T08:51:31.066Z,7.16
2024-01-14T08:54:02.040Z,6.91
2024-01-14T08:56:31.426Z,6.83
2024-01-14T08:58:58.664Z,7.14
2024-01-14T09:01:25.818Z,7.55
2024-01-14T09:03:52.353Z,6.88
2024-01-14T09:06:18.969Z,7.48
2024-01-14T09:08:45.498Z,7.74
2024-01-14T09:11:11.924Z,8.18
2024-01-14T09:13:38.356Z,8.08
2024-01-14T09:16:06.853Z,7.92
2024-01-14T09:18:33.395Z,7.41
2024-01-14T09:20:59.917Z,8.47
2024-01-14T09:23:26.619Z,7.50
2024-01-14T09:25:52.958Z,7.95
2024-01-14T09:28:19.817Z,7.53
2024-01-14T09:30:46.409Z,7.77
2024-01-14T09:33:12.881Z,7.24
2024-01-14T09:35:39.295Z,7.82
2024-01-14T09:38:06.016Z,7.93
2024-01-14T09:40:32.486Z,8.14
2024-01-14T09:43:00.742Z,8.08
2024-01-14T09:45:31.518Z,7.86
2024-01-14T09:48:05.171Z,7.66
2024-01-14T09:50:32.318Z,7.47
2024-01-14T09:52:59.725Z,7.61
2024-01-14T09:55:26.625Z,7.82
2024-01-14T09:57:53.449Z,7.39
2024-01-14T10:00:24.059Z,7.60
2024-01-14T10:02:50.495Z,7.81
2024-01-14T10:05:17.121Z,7.29
2024-01-14T10:07:44.462Z,8.24
2024-01-14T10:10:11.616Z,8.69
2024-01-14T10:12:38.672Z,7.91
2024-01-14T10:15:05.975Z,8.52
2024-01-14T10:17:32.579Z,7.73
2024-01-14T10:19:59.144Z,8.53
2024-01-14T10:22:29.061Z,8.90
2024-01-14T10:24:56.718Z,7.10
2024-01-14T10:27:34.888Z,7.23
2024-01-14T10:30:15.072Z,7.76
2024-01-14T10:33:16.298Z,8.19
2024-01-14T10:35:29.689Z,7.64
2024-01-14T10:37:57.604Z,7.83
2024-01-14T10:40:23.994Z,7.83
2024-01-14T10:42:51.030Z,7.27
2024-01-14T10:45:18.579Z,8.07
2024-01-14T10:47:48.241Z,7.51
2024-01-14T10:50:18.550Z,8.60
2024-01-14T10:52:51.081Z,8.14
2024-01-14T10:55:35.838Z,8.74
2024-01-14T10:58:04.679Z,8.14
2024-01-14T11:00:35.797Z,8.90
2024-01-14T11:03:08.496Z,8.14
2024-01-14T11:05:36.395Z,8.22
2024-01-14T11:08:04.969Z,8.38
2024-01-14T11:10:32.401Z,7.62
2024-01-14T11:13:11.675Z,8.28
2024-01-14T11:15:54.005Z,8.23
2024-01-14T11:18:25.360Z,7.63
2024-01-14T11:21:13.154Z,7.97
2024-01-14T11:23:48.257Z,8.11
2024-01-14T11:26:14.698Z,8.14
2024-01-14T11:28:45.579Z,8.41
2024-01-14T11:31:12.134Z,8.09
2024-01-14T11:33:50.590Z,8.33
2024-01-14T11:36:54.428Z,7.65
2024-01-14T11:39:20.819Z,7.82
2024-01-14T11:41:47.240Z,7.65
2024-01-14T11:44:29.011Z,8.67
2024-01-14T11:46:58.157Z,8.49
2024-01-14T11:49:27.937Z,7.75
2024-01-14T11:52:03.206Z,7.64
2024-01-14T11:54:32.621Z,8.65
2024-01-14T11:57:00.188Z,8.31
2024-01-14T11:59:34.977Z,8.37
2024-01-14T12:02:17.949Z,8.79
2024-01-14T12:04:51.773Z,8.79
2024-01-14T12:07:24.094Z,8.66
2024-01-14T12:09:57.029Z,7.64
2024-01-14T12:12:26.358Z,7.92
2024-01-14T12:14:52.942Z,8.80
2024-01-14T12:17:19.385Z,9.16
2024-01-14T12:19:59.825Z,8.26
2024-01-14T12:22:26.725Z,8.29
2024-01-14T12:24:53.185Z,8.51
2024-01-14T12:27:20.612Z,7.29
2024-01-14T12:29:47.520Z,8.33
2024-01-14T12:32:13.968Z,8.67
2024-01-14T12:34:44.700Z,8.77
2024-01-14T12:37:14.600Z,7.97
2024-01-14T12:39:41.460Z,7.15
2024-01-14T12:42:08.170Z,7.05
2024-01-14T12:44:43.149Z,7.49
2024-01-14T12:47:09.984Z,7.66
2024-01-14T12:49:36.608Z,7.93
2024-01-14T12:52:05.644Z,7.85
2024-01-14T12:54:32.562Z,7.73
2024-01-14T12:57:02.253Z,7.26
2024-01-14T12:59:30.093Z,7.32
2024-01-14T13:01:56.521Z,7.70
2024-01-14T13:04:22.882Z,7.38
2024-01-14T13:06:52.150Z,8.22
2024-01-14T13:09:19.231Z,8.12
2024-01-14T13:11:45.652Z,7.75
2024-01-14T13:14:12.057Z,7.92
2024-01-14T13:16:42.825Z,7.70
2024-01-14T13:19:17.160Z,8.51
2024-01-14T13:21:43.656Z,7.94
2024-01-14T13:24:13.547Z,8.66
2024-01-14T13:26:42.838Z,7.93
2024-01-14T13:29:11.907Z,8.66
2024-01-14T13:31:40.330Z,8.52
2024-01-14T13:34:08.045Z,7.75
2024-01-14T13:36:35.068Z,8.77
2024-01-14T13:39:02.863Z,8.56
2024-01-14T13:41:29.434Z,8.38
2024-01-14T13:44:08.464Z,7.70
2024-01-14T13:46:42.097Z,7.01
2024-01-14T13:49:08.537Z,6.95
2024-01-14T13:51:35.224Z,7.86
2024-01-14T13:54:11.592Z,7.52
2024-01-14T13:56:41.232Z,7.93
2024-01-14T13:59:09.577Z,7.63
2024-01-14T14:01:38.431Z,7.63
2024-01-14T14:04:05.997Z,7.28
2024-01-14T14:06:36.529Z,8.63
2024-01-14T14:09:03.817Z,7.85
2024-01-14T14:11:30.273Z,8.05
2024-01-14T14:13:58.384Z,8.15
2024-01-14T14:16:35.189Z,6.58
2024-01-14T14:19:06.371Z,6.66
2024-01-14T14:21:36.687Z,6.38
2024-01-14T14:24:06.283Z,5.97
2024-01-14T14:26:32.713Z,6.05
2024-01-14T14:28:59.151Z,6.49
2024-01-14T14:31:34.620Z,7.19
2024-01-14T14:34:06.703Z,6.99
2024-01-14T14:36:33.209Z,7.32
2024-01-14T14:39:00.250Z,7.88
2024-01-14T14:41:30.354Z,6.71
2024-01-14T14:44:01.950Z,7.67
2024-01-14T14:46:28.508Z,7.33
2024-01-14T14:48:55.066Z,7.54
2024-01-14T14:51:30.029Z,7.61
2024-01-14T14:54:03.668Z,7.58
2024-01-14T14:56:31.093Z,7.74
2024-01-14T14:59:00.403Z,7.18
2024-01-14T15:01:36.390Z,7.55
2024-01-14T15:04:08.559Z,6.99
2024-01-14T15:06:35.086Z,6.50
2024-01-14T15:09:01.526Z,6.48
2024-01-14T15:11:31.423Z,6.89
2024-01-14T15:14:02.218Z,7.03
2024-01-14T15:16:28.669Z,6.77
2024-01-14T15:18:55.158Z,6.92
2024-01-14T15:21:22.093Z,7.03
2024-01-14T15:23:48.769Z,7.16
2024-01-14T15:26:15.163Z,7.15
2024-01-14T15:28:41.594Z,7.25
2024-01-14T15:31:09.201Z,7.28
2024-01-14T15:33:36.370Z,7.35
2024-01-14T15:36:04.629Z,7.15
2024-01-14T15:38:32.847Z,6.62
2024-01-14T15:41:05.805Z,6.92
2024-01-14T15:43:34.891Z,6.55
2024-01-14T15:46:01.389Z,6.78
2024-01-14T15:48:29.517Z,6.14
2024-01-14T15:51:00.767Z,6.75
2024-01-14T15:53:31.129Z,6.78
2024-01-14T15:55:57.467Z,6.82
2024-01-14T15:58:23.831Z,6.72
2024-01-14T16:01:02.832Z,6.85
2024-01-14T16:03:36.229Z,6.55
2024-01-14T16:06:03.306Z,6.43
2024-01-14T16:08:30.132Z,5.93
2024-01-14T16:11:04.632Z,6.22
2024-01-14T16:13:33.919Z,5.87
2024-01-14T16:16:00.803Z,4.99
2024-01-14T16:18:27.226Z,5.54
2024-01-14T16:21:02.713Z,6.27
2024-01-14T16:23:32.986Z,6.03
2024-01-14T16:25:59.582Z,6.75
2024-01-14T16:28:26.128Z,7.04
2024-01-14T16:31:01.032Z,6.47
2024-01-14T16:33:35.885Z,6.74
2024-01-14T16:36:02.565Z,6.84
2024-01-14T16:38:29.069Z,6.41
2024-01-14T16:41:03.022Z,6.28
2024-01-14T16:43:31.784Z,6.11
2024-01-14T16:45:58.200Z,6.46
2024-01-14T16:48:24.635Z,6.50
2024-01-14T16:51:01.970Z,6.82
2024-01-14T16:53:34.777Z,6.60
2024-01-14T16:56:01.425Z,6.24
2024-01-14T16:58:28.068Z,6.23
2024-01-14T17:01:07.530Z,6.47
2024-01-14T17:03:41.103Z,6.24
2024-01-14T17:06:09.890Z,6.47
2024-01-14T17:08:37.853Z,6.46
2024-01-14T17:11:08.788Z,6.79
2024-01-14T17:13:35.221Z,7.00
2024-01-14T17:16:09.053Z,6.59
2024-01-14T17:18:38.375Z,6.58
2024-01-14T17:21:05.161Z,6.75
2024-01-14T17:23:31.590Z,6.87
2024-01-14T17:26:07.286Z,6.38
2024-01-14T17:28:38.358Z,6.55
2024-01-14T17:31:04.834Z,6.13
2024-01-14T17:33:32.244Z,6.34
2024-01-14T17:36:04.927Z,5.92
2024-01-14T17:38:33.690Z,6.45
2024-01-14T17:41:00.705Z,6.38
2024-01-14T17:43:29.307Z,6.59
2024-01-14T17:46:03.743Z,6.93
2024-01-14T17:48:35.385Z,6.53
2024-01-14T17:51:03.655Z,6.61
2024-01-14T17:53:30.703Z,6.46
2024-01-14T17:55:57.157Z,6.50
2024-01-14T17:58:23.826Z,6.70
2024-01-14T18:00:50.532Z,6.05
2024-01-14T18:03:19.014Z,6.73
2024-01-14T18:05:45.735Z,6.68
2024-01-14T18:08:12.567Z,6.66
2024-01-14T18:10:40.006Z,6.54
2024-01-14T18:13:12.730Z,6.35
2024-01-14T18:15:41.757Z,6.65
2024-01-14T18:18:09.428Z,6.61
2024-01-14T18:20:35.991Z,6.63
2024-01-14T18:23:10.369Z,6.55
2024-01-14T18:25:39.121Z,6.18
2024-01-14T18:28:05.967Z,6.41
2024-01-14T18:30:32.488Z,6.15
2024-01-14T18:33:08.921Z,6.12
2024-01-14T18:35:39.656Z,6.18
2024-01-14T18:38:06.958Z,6.10
2024-01-14T18:40:34.044Z,6.60
2024-01-14T18:43:00.545Z,6.59
2024-01-14T18:45:29.732Z,6.75
2024-01-14T18:47:56.546Z,6.15
2024-01-14T18:50:22.991Z,6.82
2024-01-14T18:52:49.329Z,6.45
2024-01-14T18:55:17.004Z,6.64
2024-01-14T18:57:43.457Z,6.23
2024-01-14T19:00:10.359Z,6.62
2024-01-14T19:02:37.003Z,7.21
2024-01-14T19:05:04.567Z,6.60
2024-01-14T19:07:30.997Z,6.74
2024-01-14T19:09:57.594Z,5.92
2024-01-14T19:12:24.014Z,6.32
2024-01-14T19:14:51.502Z,6.55
2024-01-14T19:17:17.930Z,6.49
2024-01-14T19:19:45.159Z,6.31
2024-01-14T19:22:12.186Z,6.22
2024-01-14T19:24:42.453Z,6.44
2024-01-14T19:27:09.519Z,6.44
2024-01-14T19:29:36.029Z,6.70
2024-01-14T19:32:02.513Z,6.12
2024-01-14T19:34:29.290Z,6.66
2024-01-14T19:36:55.832Z,6.26
2024-01-14T19:39:23.762Z,6.46
2024-01-14T19:41:50.206Z,6.44
2024-01-14T19:44:18.678Z,6.59
2024-01-14T19:46:45.095Z,6.33
2024-01-14T19:49:11.507Z,6.25
2024-01-14T19:51:37.990Z,6.16
2024-01-14T19:54:05.404Z,6.41
2024-01-14T19:56:32.876Z,6.56
2024-01-14T19:58:59.659Z,6.49
2024-01-14T20:01:26.176Z,6.13
2024-01-14T20:03:52.936Z,6.63
2024-01-14T20:06:23.423Z,6.59
2024-01-14T20:08:51.060Z,5.81
2024-01-14T20:11:18.454Z,6.44
2024-01-14T20:13:45.616Z,6.53
2024-01-14T20:16:12.002Z,6.55
2024-01-14T20:18:38.578Z,6.86
2024-01-14T20:21:05.269Z,6.94
2024-01-14T20:23:31.886Z,7.27
2024-01-14T20:25:58.288Z,7.26
2024-01-14T20:28:24.765Z,6.67
2024-01-14T20:30:52.355Z,6.98
2024-01-14T20:33:19.337Z,6.92
2024-01-14T20:35:45.841Z,6.65
2024-01-14T20:38:12.818Z,6.32
2024-01-14T20:40:39.171Z,6.71
2024-01-14T20:43:05.576Z,5.61
2024-01-14T20:45:32.105Z,5.69
2024-01-14T20:47:58.709Z,5.43
2024-01-14T20:50:25.197Z,5.49
2024-01-14T20:52:51.573Z,5.67
2024-01-14T20:55:18.677Z,5.66
2024-01-14T20:57:45.177Z,4.92
2024-01-14T21:00:12.067Z,5.03
2024-01-14T21:02:40.772Z,5.29
2024-01-14T21:05:08.029Z,6.20
2024-01-14T21:07:34.428Z,6.01
2024-01-14T21:10:00.898Z,5.60
2024-01-14T21:12:27.913Z,6.17
2024-01-14T21:14:54.328Z,5.84
2024-01-14T21:17:20.718Z,5.96
2024-01-14T21:19:47.146Z,6.55
2024-01-14T21:22:13.528Z,5.64
2024-01-14T21:24:41.516Z,5.82
2024-01-14T21:27:08.136Z,5.94
2024-01-14T21:29:34.623Z,6.30
2024-01-14T21:32:00.979Z,6.30
2024-01-14T21:34:27.414Z,6.05
2024-01-14T21:36:53.976Z,6.15
2024-01-14T21:39:20.362Z,5.89
2024-01-14T21:41:46.761Z,5.45
2024-01-14T21:44:13.196Z,5.82
2024-01-14T21:46:40.632Z,5.87
2024-01-14T21:49:07.173Z,6.02
2024-01-14T21:51:33.736Z,5.79
2024-01-14T21:54:00.162Z,5.58
2024-01-14T21:56:26.509Z,5.34
2024-01-14T21:58:52.891Z,5.50
2024-01-14T22:01:19.332Z,5.48
2024-01-14T22:03:45.734Z,5.59
2024-01-14T22:06:12.132Z,5.57
2024-01-14T22:08:38.724Z,5.09
2024-01-14T22:11:05.275Z,5.69
2024-01-14T22:13:31.702Z,5.24
2024-01-14T22:15:58.207Z,5.24
2024-01-14T22:18:24.743Z,5.24
2024-01-14T22:20:51.337Z,5.73
2024-01-14T22:23:17.785Z,5.33
2024-01-14T22:25:44.186Z,5.17
2024-01-14T22:28:10.647Z,5.35
2024-01-14T22:30:37.289Z,5.45
2024-01-14T22:33:04.381Z,5.35
2024-01-14T22:35:31.647Z,5.60
2024-01-14T22:37:58.005Z,5.26
2024-01-14T22:40:24.419Z,5.54
2024-01-14T22:42:50.820Z,5.40
2024-01-14T22:45:17.290Z,5.09
2024-01-14T22:47:44.004Z,5.92
2024-01-14T22:50:10.395Z,5.47
2024-01-14T22:52:36.782Z,5.70
2024-01-14T22:55:03.172Z,5.54
2024-01-14T22:57:33.930Z,4.88
2024-01-14T23:00:01.084Z,5.39
2024-01-14T23:02:27.473Z,6.18
2024-01-14T23:04:54.099Z,5.65
2024-01-14T23:07:20.762Z,5.67
2024-01-14T23:09:47.190Z,5.08
2024-01-14T23:12:14.085Z,5.29
2024-01-14T23:14:40.552Z,6.14
2024-01-14T23:17:06.888Z,5.74
2024-01-14T23:19:33.352Z,5.64
2024-01-14T23:21:59.777Z,6.18
2024-01-14T23:24:26.216Z,6.16
2024-01-14T23:26:52.578Z,5.81
2024-01-14T23:29:19.006Z,5.40
2024-01-14T23:31:45.455Z,5.64
2024-01-14T23:34:12.586Z,5.68
2024-01-14T23:36:39.057Z,5.67
2024-01-14T23:39:06.666Z,5.51
2024-01-14T23:41:33.151Z,4.97
2024-01-14T23:43:59.553Z,5.76
2024-01-14T23:46:28.758Z,5.41
2024-01-14T23:48:56.217Z,6.02
2024-01-14T23:51:22.751Z,5.48
2024-01-14T23:53:49.135Z,5.83
2024-01-14T23:56:15.497Z,5.49
2024-01-14T23:58:41.879Z,5.14
